메인 페이지
METAR-TAF:

METAR-TAF

공항 :

그란카나리아 섬, 스페인

위도: 27-56N, 경도: 015-23W, 고도: 23m

현재 날씨관측

예보는 20분 전, 05:30시(UTC)에 발표되었습니다.
13kt
온도 16°C
습도 77%
기압 1016 hPa
시정 10km 이상
고도 2200ft 상공 구름 보통
고도 5000ft 상공 구름 많음

METAR: GCLP 200530Z 01013KT 9999 SCT022 BKN050 16/12 Q1016 NOSIG

시각: 05:50 (05:50 UTC)

예보

예보는 3 시간 50분 전, 02:00시(UTC)에 발표되었습니다.
예보 대상 시간: 20일 03시부터 21일 03시까지 (UTC)
15kt
시정 10km 이상
고도 3000ft 상공 구름 조금
고도 4000ft 상공 구름 보통
확률 30% :
일시적
20일 03시부터 21일 03시까지 (UTC)
이슬비, 비
확률 40% :
일시적
20일 10시부터 20일 18시까지 (UTC)
20kt, 순간 최대 풍속 30kt

TAF: GCLP 200200Z 2003/2103 01015KT 9999 FEW030 SCT040 TX20/2014Z TN15/2006Z PROB30 TEMPO 2003/2103 DZRA PROB40 TEMPO 2010/2018 01020G30KT

4,000개 이상의 공항 관측 자료 및 예보 (METAR 및 TAF 보고).

지도상에서 검색 가능한 기상관측소가 노란 점과 빨간 점으로 표시되어 있습니다.

기상관측소 명을 보려면 표시 위로 마우스를 이동하세요.

날씨 관측과 예보를 보려면 클릭하세요.

지도 변경 : 확대하려면 엑스 표시가 있는 녹색 버튼, 축소하려면 빼기 표시가 있는 녹색 버튼, 다음 페이지의 지도를 보려면 녹색 화살표를 클릭하세요.


METAR-TAF: